createdAt,value
2019-06-25T09:29:06.439Z,30.30
2019-06-25T09:31:35.686Z,30.30
2019-06-25T09:34:04.909Z,30.30
2019-06-25T09:36:34.127Z,30.40
2019-06-25T09:39:04.294Z,30.50
2019-06-25T09:41:32.686Z,30.50
2019-06-25T09:44:01.085Z,30.60
2019-06-25T09:46:30.787Z,30.70
2019-06-25T09:49:00.455Z,30.70
2019-06-25T09:51:30.148Z,30.80
2019-06-25T09:53:59.654Z,30.90
2019-06-25T09:56:30.481Z,30.90
2019-06-25T09:58:59.932Z,30.90
2019-06-25T10:01:44.266Z,30.90
2019-06-25T10:04:00.460Z,30.90
2019-06-25T10:06:29.679Z,30.90
2019-06-25T10:08:59.255Z,31.00
2019-06-25T10:11:28.463Z,31.00
2019-06-25T10:13:57.700Z,31.10
2019-06-25T10:16:29.415Z,31.10
2019-06-25T10:19:04.756Z,31.20
2019-06-25T10:21:34.214Z,31.30
2019-06-25T10:24:06.159Z,31.30
2019-06-25T10:26:38.970Z,31.40
2019-06-25T10:29:11.063Z,31.40
2019-06-25T10:31:43.713Z,31.40
2019-06-25T10:34:14.483Z,31.40
2019-06-25T10:36:43.866Z,31.40
2019-06-25T10:39:13.090Z,31.30
2019-06-25T10:41:42.311Z,31.30
2019-06-25T10:44:14.368Z,31.30
2019-06-25T10:46:42.449Z,31.20
2019-06-25T10:49:11.735Z,31.30
2019-06-25T10:51:40.948Z,31.20
2019-06-25T10:54:10.175Z,31.20
2019-06-25T10:56:39.374Z,31.30
2019-06-25T10:59:08.612Z,31.30
2019-06-25T11:01:37.825Z,31.30
2019-06-25T11:04:07.322Z,31.30
2019-06-25T11:06:36.563Z,31.40
2019-06-25T11:09:10.563Z,31.40
2019-06-25T11:11:39.757Z,31.50
2019-06-25T11:14:09.239Z,31.50
2019-06-25T11:16:38.842Z,31.50
2019-06-25T11:19:08.166Z,31.60
2019-06-25T11:21:37.399Z,31.60
2019-06-25T11:24:06.606Z,31.60
2019-06-25T11:26:35.834Z,31.60
2019-06-25T11:29:05.084Z,31.60
2019-06-25T11:31:34.299Z,31.60
2019-06-25T11:34:03.523Z,31.70
2019-06-25T11:36:32.726Z,31.70
2019-06-25T11:39:02.582Z,31.70
2019-06-25T11:41:33.482Z,31.70
2019-06-25T11:44:02.703Z,31.70
2019-06-25T11:46:31.907Z,31.80
2019-06-25T11:49:01.298Z,31.80
2019-06-25T11:51:30.503Z,31.90
2019-06-25T11:53:59.723Z,32.10
2019-06-25T11:56:28.947Z,32.10
2019-06-25T11:58:58.174Z,32.20
2019-06-25T12:01:28.471Z,32.30
2019-06-25T12:03:57.956Z,32.30
2019-06-25T12:06:35.166Z,32.30
2019-06-25T12:08:59.699Z,32.40
2019-06-25T12:11:29.077Z,32.40
2019-06-25T12:13:58.299Z,32.50
2019-06-25T12:16:27.588Z,32.60
2019-06-25T12:18:56.784Z,32.60
2019-06-25T12:21:26.243Z,32.70
2019-06-25T12:23:55.450Z,32.70
2019-06-25T12:26:24.683Z,32.70
2019-06-25T12:28:53.909Z,32.70
2019-06-25T12:31:23.123Z,32.70
2019-06-25T12:33:52.313Z,32.70
2019-06-25T12:36:21.550Z,32.70
2019-06-25T12:38:50.754Z,32.80
2019-06-25T12:41:19.983Z,32.80
2019-06-25T12:43:49.187Z,32.90
2019-06-25T12:46:18.420Z,32.90
2019-06-25T12:48:47.615Z,33.00
2019-06-25T12:51:16.846Z,33.00
2019-06-25T12:53:46.042Z,33.10
2019-06-25T12:56:15.291Z,33.10
2019-06-25T12:58:44.492Z,33.20
2019-06-25T13:01:13.806Z,33.10
2019-06-25T13:03:43.082Z,33.10
2019-06-25T13:06:12.766Z,33.10
2019-06-25T13:08:42.057Z,33.20
2019-06-25T13:11:11.254Z,33.30
2019-06-25T13:13:40.483Z,33.40
2019-06-25T13:16:09.766Z,33.50
2019-06-25T13:18:39.309Z,33.50
2019-06-25T13:21:08.618Z,33.60
2019-06-25T13:26:06.738Z,33.80
2019-06-25T13:28:35.955Z,33.80
2019-06-25T13:31:05.155Z,33.90
2019-06-25T13:33:34.379Z,33.90
2019-06-25T13:36:03.855Z,34.00
2019-06-25T13:38:33.293Z,34.00
2019-06-25T13:41:02.665Z,34.00
2019-06-25T13:43:31.880Z,34.10
2019-06-25T13:46:01.090Z,34.10
2019-06-25T13:48:30.317Z,34.10
2019-06-25T13:50:59.545Z,34.20
2019-06-25T13:53:29.850Z,34.30
2019-06-25T13:56:00.145Z,34.30
2019-06-25T13:58:29.339Z,34.40
2019-06-25T14:00:58.651Z,34.40
2019-06-25T14:03:28.230Z,34.40
2019-06-25T14:05:57.456Z,34.50
2019-06-25T14:08:26.669Z,34.50
2019-06-25T14:10:55.888Z,34.50
2019-06-25T14:13:25.091Z,34.60
2019-06-25T14:15:54.310Z,34.60
2019-06-25T14:18:23.510Z,34.70
2019-06-25T14:20:52.733Z,34.80
2019-06-25T14:23:21.951Z,34.90
2019-06-25T14:25:51.190Z,34.90
2019-06-25T14:28:20.437Z,34.90
2019-06-25T14:30:50.833Z,35.00
2019-06-25T14:33:20.039Z,35.00
2019-06-25T14:35:49.288Z,35.00
2019-06-25T14:38:18.542Z,35.00
2019-06-25T14:40:47.770Z,35.10
2019-06-25T14:43:16.976Z,35.10
2019-06-25T14:45:46.198Z,35.10
2019-06-25T14:48:15.414Z,35.20
2019-06-25T14:50:44.613Z,35.30
2019-06-25T14:53:15.465Z,35.30
2019-06-25T14:55:45.162Z,35.30
2019-06-25T14:58:14.363Z,35.40
2019-06-25T15:00:43.592Z,35.40
2019-06-25T15:03:12.785Z,35.40
2019-06-25T15:05:42.010Z,35.50
2019-06-25T15:08:11.205Z,35.60
2019-06-25T15:10:40.428Z,35.60
2019-06-25T15:13:09.650Z,35.60
2019-06-25T15:15:39.222Z,35.70
2019-06-25T15:18:08.442Z,35.80
2019-06-25T15:20:37.642Z,35.80
2019-06-25T15:23:06.934Z,35.90
2019-06-25T15:25:36.141Z,35.90
2019-06-25T15:30:37.191Z,36.10
2019-06-25T15:33:06.676Z,36.10
2019-06-25T15:35:35.870Z,36.20
2019-06-25T15:38:05.370Z,36.20
2019-06-25T15:40:34.575Z,36.20
2019-06-25T15:43:03.789Z,36.20
2019-06-25T15:45:36.304Z,36.20
2019-06-25T15:48:05.585Z,36.20
2019-06-25T15:50:34.788Z,36.30
2019-06-25T15:53:04.050Z,36.40
2019-06-25T15:55:33.350Z,36.40
2019-06-25T15:58:03.374Z,36.40
2019-06-25T16:00:32.574Z,36.40
2019-06-25T16:03:01.808Z,36.50
2019-06-25T16:05:31.015Z,36.50
2019-06-25T16:08:00.239Z,36.60
2019-06-25T16:10:29.465Z,36.70
2019-06-25T16:12:58.667Z,36.80
2019-06-25T16:15:40.626Z,36.80
2019-06-25T16:17:59.237Z,36.80
2019-06-25T16:20:28.435Z,36.90
2019-06-25T16:22:57.668Z,37.00
2019-06-25T16:25:26.895Z,37.20
2019-06-25T16:27:56.097Z,37.40
2019-06-25T16:30:27.487Z,37.60
2019-06-25T16:32:56.759Z,37.90
2019-06-25T16:35:26.096Z,38.30
2019-06-25T16:37:55.332Z,38.60
2019-06-25T16:40:24.541Z,38.90
2019-06-25T16:42:53.822Z,39.10
2019-06-25T16:47:51.844Z,39.80
